sensor_id;sensor_type;location;lat;lon;timestamp;temperature;humidity
7032;DHT22;3557;48.880;8.328;2022-08-07T00:09:32;15.10;91.80
7032;DHT22;3557;48.880;8.328;2022-08-07T00:11:59;15.10;91.60
7032;DHT22;3557;48.880;8.328;2022-08-07T00:14:26;15.10;91.00
7032;DHT22;3557;48.880;8.328;2022-08-07T00:16:55;15.20;90.70
7032;DHT22;3557;48.880;8.328;2022-08-07T00:24:20;15.30;90.30
7032;DHT22;3557;48.880;8.328;2022-08-07T00:26:47;15.40;90.10
7032;DHT22;3557;48.880;8.328;2022-08-07T00:39:07;15.60;85.10
7032;DHT22;3557;48.880;8.328;2022-08-07T00:41:34;15.70;84.50
7032;DHT22;3557;48.880;8.328;2022-08-07T00:44:01;15.90;83.80
7032;DHT22;3557;48.880;8.328;2022-08-07T00:46:28;15.90;83.30
7032;DHT22;3557;48.880;8.328;2022-08-07T00:53:55;16.00;81.50
7032;DHT22;3557;48.880;8.328;2022-08-07T01:01:18;16.10;81.30
7032;DHT22;3557;48.880;8.328;2022-08-07T01:03:46;16.10;81.80
7032;DHT22;3557;48.880;8.328;2022-08-07T01:06:14;16.10;82.00
7032;DHT22;3557;48.880;8.328;2022-08-07T01:08:42;16.00;82.10
7032;DHT22;3557;48.880;8.328;2022-08-07T01:11:12;16.00;81.90
7032;DHT22;3557;48.880;8.328;2022-08-07T01:18:35;15.90;81.70
7032;DHT22;3557;48.880;8.328;2022-08-07T01:21:09;15.90;81.90
7032;DHT22;3557;48.880;8.328;2022-08-07T01:26:10;15.80;82.00
7032;DHT22;3557;48.880;8.328;2022-08-07T01:28:42;15.70;82.20
7032;DHT22;3557;48.880;8.328;2022-08-07T01:38:39;15.70;82.50
7032;DHT22;3557;48.880;8.328;2022-08-07T01:43:44;15.60;81.00
7032;DHT22;3557;48.880;8.328;2022-08-07T01:51:20;15.70;80.90
7032;DHT22;3557;48.880;8.328;2022-08-07T02:06:27;15.60;81.20
7032;DHT22;3557;48.880;8.328;2022-08-07T02:09:00;15.50;82.10
7032;DHT22;3557;48.880;8.328;2022-08-07T02:14:03;15.00;81.90
7032;DHT22;3557;48.880;8.328;2022-08-07T02:16:35;15.40;82.50
7032;DHT22;3557;48.880;8.328;2022-08-07T02:19:05;15.40;81.80
7032;DHT22;3557;48.880;8.328;2022-08-07T02:26:32;15.30;82.00
7032;DHT22;3557;48.880;8.328;2022-08-07T02:31:34;15.20;81.70
7032;DHT22;3557;48.880;8.328;2022-08-07T02:34:03;15.20;82.20
7032;DHT22;3557;48.880;8.328;2022-08-07T02:39:11;15.10;82.80
7032;DHT22;3557;48.880;8.328;2022-08-07T02:44:07;15.10;82.20
7032;DHT22;3557;48.880;8.328;2022-08-07T02:56:33;15.10;81.40
7032;DHT22;3557;48.880;8.328;2022-08-07T03:01:32;14.90;81.60
7032;DHT22;3557;48.880;8.328;2022-08-07T03:04:00;15.00;82.10
7032;DHT22;3557;48.880;8.328;2022-08-07T03:08:56;14.90;81.90
7032;DHT22;3557;48.880;8.328;2022-08-07T03:11:25;14.90;82.10
7032;DHT22;3557;48.880;8.328;2022-08-07T03:13:52;14.90;82.60
7032;DHT22;3557;48.880;8.328;2022-08-07T03:16:23;14.80;83.00
7032;DHT22;3557;48.880;8.328;2022-08-07T03:18:51;14.80;83.80
7032;DHT22;3557;48.880;8.328;2022-08-07T03:21:20;14.80;83.90
7032;DHT22;3557;48.880;8.328;2022-08-07T03:23:47;14.70;83.80
7032;DHT22;3557;48.880;8.328;2022-08-07T03:26:18;14.80;84.00
7032;DHT22;3557;48.880;8.328;2022-08-07T03:28:50;14.80;83.50
7032;DHT22;3557;48.880;8.328;2022-08-07T03:33:54;14.70;83.40
7032;DHT22;3557;48.880;8.328;2022-08-07T03:38:54;14.70;84.50
7032;DHT22;3557;48.880;8.328;2022-08-07T03:43:53;14.60;85.00
7032;DHT22;3557;48.880;8.328;2022-08-07T03:46:21;14.60;85.60
7032;DHT22;3557;48.880;8.328;2022-08-07T03:51:19;14.50;86.00
7032;DHT22;3557;48.880;8.328;2022-08-07T04:03:46;14.30;88.70
7032;DHT22;3557;48.880;8.328;2022-08-07T04:16:07;14.10;90.50
7032;DHT22;3557;48.880;8.328;2022-08-07T04:30:55;14.30;90.40
7032;DHT22;3557;48.880;8.328;2022-08-07T04:40:55;14.40;89.60
7032;DHT22;3557;48.880;8.328;2022-08-07T04:46:22;14.40;89.40
7032;DHT22;3557;48.880;8.328;2022-08-07T04:48:59;14.50;88.80
7032;DHT22;3557;48.880;8.328;2022-08-07T04:54:11;14.60;87.90
7032;DHT22;3557;48.880;8.328;2022-08-07T05:04:26;14.80;86.60
7032;DHT22;3557;48.880;8.328;2022-08-07T05:17:11;15.90;83.70
7032;DHT22;3557;48.880;8.328;2022-08-07T05:22:13;16.30;81.60
7032;DHT22;3557;48.880;8.328;2022-08-07T05:24:43;16.50;80.20
7032;DHT22;3557;48.880;8.328;2022-08-07T05:29:41;17.00;78.60
7032;DHT22;3557;48.880;8.328;2022-08-07T05:34:39;17.80;76.20
7032;DHT22;3557;48.880;8.328;2022-08-07T05:37:07;18.20;74.50
7032;DHT22;3557;48.880;8.328;2022-08-07T05:39:43;18.60;72.80
7032;DHT22;3557;48.880;8.328;2022-08-07T05:42:11;18.80;71.90
7032;DHT22;3557;48.880;8.328;2022-08-07T05:44:42;19.00;71.60
7032;DHT22;3557;48.880;8.328;2022-08-07T05:49:39;19.20;70.50
7032;DHT22;3557;48.880;8.328;2022-08-07T05:57:05;19.40;69.80
7032;DHT22;3557;48.880;8.328;2022-08-07T05:59:36;19.60;70.10
7032;DHT22;3557;48.880;8.328;2022-08-07T06:02:06;19.70;69.00
7032;DHT22;3557;48.880;8.328;2022-08-07T06:07:04;19.90;68.70
7032;DHT22;3557;48.880;8.328;2022-08-07T06:09:35;20.10;68.60
7032;DHT22;3557;48.880;8.328;2022-08-07T06:12:05;20.10;68.20
7032;DHT22;3557;48.880;8.328;2022-08-07T06:14:33;20.20;67.90
7032;DHT22;3557;48.880;8.328;2022-08-07T06:17:02;20.40;67.60
7032;DHT22;3557;48.880;8.328;2022-08-07T06:19:34;20.30;67.50
7032;DHT22;3557;48.880;8.328;2022-08-07T06:22:04;20.50;67.70
7032;DHT22;3557;48.880;8.328;2022-08-07T06:24:31;20.50;67.00
7032;DHT22;3557;48.880;8.328;2022-08-07T06:29:28;20.70;67.00
7032;DHT22;3557;48.880;8.328;2022-08-07T06:34:23;21.30;66.00
7032;DHT22;3557;48.880;8.328;2022-08-07T06:36:51;21.50;65.00
7032;DHT22;3557;48.880;8.328;2022-08-07T06:39:25;22.00;63.70
7032;DHT22;3557;48.880;8.328;2022-08-07T06:41:58;22.10;62.50
7032;DHT22;3557;48.880;8.328;2022-08-07T06:44:56;22.70;61.40
7032;DHT22;3557;48.880;8.328;2022-08-07T06:47:24;23.00;61.30
7032;DHT22;3557;48.880;8.328;2022-08-07T06:49:51;23.10;60.40
7032;DHT22;3557;48.880;8.328;2022-08-07T06:52:20;22.80;61.30
7032;DHT22;3557;48.880;8.328;2022-08-07T06:54:49;22.70;61.30
7032;DHT22;3557;48.880;8.328;2022-08-07T06:57:19;22.70;61.60
7032;DHT22;3557;48.880;8.328;2022-08-07T06:59:48;22.60;62.00
7032;DHT22;3557;48.880;8.328;2022-08-07T07:02:20;22.40;62.50
7032;DHT22;3557;48.880;8.328;2022-08-07T07:07:15;22.40;63.50
7032;DHT22;3557;48.880;8.328;2022-08-07T07:12:21;22.20;63.80
7032;DHT22;3557;48.880;8.328;2022-08-07T07:15:00;22.20;63.90
7032;DHT22;3557;48.880;8.328;2022-08-07T07:17:38;22.20;63.80
7032;DHT22;3557;48.880;8.328;2022-08-07T07:20:14;22.40;63.80
7032;DHT22;3557;48.880;8.328;2022-08-07T07:25:12;22.30;63.90
7032;DHT22;3557;48.880;8.328;2022-08-07T07:27:43;22.40;64.30
7032;DHT22;3557;48.880;8.328;2022-08-07T07:30:14;22.60;64.00
7032;DHT22;3557;48.880;8.328;2022-08-07T07:32:43;22.50;64.50
7032;DHT22;3557;48.880;8.328;2022-08-07T07:35:11;22.90;64.90
7032;DHT22;3557;48.880;8.328;2022-08-07T07:37:40;23.30;63.80
7032;DHT22;3557;48.880;8.328;2022-08-07T07:40:13;23.50;62.90
7032;DHT22;3557;48.880;8.328;2022-08-07T07:42:44;23.50;63.90
7032;DHT22;3557;48.880;8.328;2022-08-07T07:45:13;23.70;63.20
7032;DHT22;3557;48.880;8.328;2022-08-07T07:47:44;23.90;63.00
7032;DHT22;3557;48.880;8.328;2022-08-07T07:50:13;24.10;63.00
7032;DHT22;3557;48.880;8.328;2022-08-07T07:52:43;24.40;62.80
7032;DHT22;3557;48.880;8.328;2022-08-07T07:55:11;24.80;62.30
7032;DHT22;3557;48.880;8.328;2022-08-07T07:57:39;25.00;62.10
7032;DHT22;3557;48.880;8.328;2022-08-07T08:00:08;25.20;61.30
7032;DHT22;3557;48.880;8.328;2022-08-07T08:02:39;25.30;61.20
7032;DHT22;3557;48.880;8.328;2022-08-07T08:05:09;25.30;61.60
7032;DHT22;3557;48.880;8.328;2022-08-07T08:07:38;25.40;62.00
7032;DHT22;3557;48.880;8.328;2022-08-07T08:10:07;25.00;62.00
7032;DHT22;3557;48.880;8.328;2022-08-07T08:15:03;24.90;62.20
7032;DHT22;3557;48.880;8.328;2022-08-07T08:17:34;24.70;63.50
7032;DHT22;3557;48.880;8.328;2022-08-07T08:20:03;25.10;63.50
7032;DHT22;3557;48.880;8.328;2022-08-07T08:22:37;25.60;62.40
7032;DHT22;3557;48.880;8.328;2022-08-07T08:25:23;25.60;62.50
7032;DHT22;3557;48.880;8.328;2022-08-07T08:28:16;25.80;62.70
7032;DHT22;3557;48.880;8.328;2022-08-07T08:30:45;25.90;62.40
7032;DHT22;3557;48.880;8.328;2022-08-07T08:33:14;26.40;61.90
7032;DHT22;3557;48.880;8.328;2022-08-07T08:35:47;26.40;61.30
7032;DHT22;3557;48.880;8.328;2022-08-07T08:38:20;26.20;62.40
7032;DHT22;3557;48.880;8.328;2022-08-07T08:40:54;26.10;62.30
7032;DHT22;3557;48.880;8.328;2022-08-07T08:43:30;25.90;62.60
7032;DHT22;3557;48.880;8.328;2022-08-07T08:46:05;26.20;62.40
7032;DHT22;3557;48.880;8.328;2022-08-07T08:48:38;26.10;62.50
7032;DHT22;3557;48.880;8.328;2022-08-07T08:51:14;26.30;62.60
7032;DHT22;3557;48.880;8.328;2022-08-07T08:53:48;26.60;62.00
7032;DHT22;3557;48.880;8.328;2022-08-07T08:56:23;26.80;61.40
7032;DHT22;3557;48.880;8.328;2022-08-07T08:58:55;27.00;60.70
7032;DHT22;3557;48.880;8.328;2022-08-07T09:01:32;26.60;61.30
7032;DHT22;3557;48.880;8.328;2022-08-07T09:04:08;26.50;61.30
7032;DHT22;3557;48.880;8.328;2022-08-07T09:06:43;26.40;62.20
7032;DHT22;3557;48.880;8.328;2022-08-07T09:09:30;26.60;61.20
7032;DHT22;3557;48.880;8.328;2022-08-07T09:12:10;26.60;61.20
7032;DHT22;3557;48.880;8.328;2022-08-07T09:14:51;26.50;61.20
7032;DHT22;3557;48.880;8.328;2022-08-07T09:17:34;26.20;61.30
7032;DHT22;3557;48.880;8.328;2022-08-07T09:20:14;26.40;61.30
7032;DHT22;3557;48.880;8.328;2022-08-07T09:22:54;26.40;60.80
7032;DHT22;3557;48.880;8.328;2022-08-07T09:25:34;26.40;59.60
7032;DHT22;3557;48.880;8.328;2022-08-07T09:28:07;26.90;58.90
7032;DHT22;3557;48.880;8.328;2022-08-07T09:30:50;27.40;57.80
7032;DHT22;3557;48.880;8.328;2022-08-07T09:33:34;27.60;55.20
7032;DHT22;3557;48.880;8.328;2022-08-07T09:36:13;27.50;54.00
7032;DHT22;3557;48.880;8.328;2022-08-07T09:38:52;27.80;54.00
7032;DHT22;3557;48.880;8.328;2022-08-07T09:41:33;28.50;53.00
7032;DHT22;3557;48.880;8.328;2022-08-07T09:44:07;29.10;51.10
7032;DHT22;3557;48.880;8.328;2022-08-07T09:46:50;29.30;48.70
7032;DHT22;3557;48.880;8.328;2022-08-07T09:49:33;29.50;47.20
7032;DHT22;3557;48.880;8.328;2022-08-07T09:52:18;29.80;46.80
7032;DHT22;3557;48.880;8.328;2022-08-07T09:54:53;29.70;46.10
7032;DHT22;3557;48.880;8.328;2022-08-07T09:58:05;29.70;46.00
7032;DHT22;3557;48.880;8.328;2022-08-07T10:00:53;29.40;44.40
7032;DHT22;3557;48.880;8.328;2022-08-07T10:03:35;29.20;44.20
7032;DHT22;3557;48.880;8.328;2022-08-07T10:06:30;28.60;46.50
7032;DHT22;3557;48.880;8.328;2022-08-07T10:12:17;29.90;45.70
7032;DHT22;3557;48.880;8.328;2022-08-07T10:15:21;30.10;43.60
7032;DHT22;3557;48.880;8.328;2022-08-07T10:18:10;30.00;44.50
7032;DHT22;3557;48.880;8.328;2022-08-07T10:21:14;30.10;43.80
7032;DHT22;3557;48.880;8.328;2022-08-07T10:24:03;30.10;43.90
7032;DHT22;3557;48.880;8.328;2022-08-07T10:26:50;30.30;44.70
7032;DHT22;3557;48.880;8.328;2022-08-07T10:29:44;30.30;44.70
7032;DHT22;3557;48.880;8.328;2022-08-07T10:35:25;30.80;42.70
7032;DHT22;3557;48.880;8.328;2022-08-07T10:38:05;31.10;44.00
7032;DHT22;3557;48.880;8.328;2022-08-07T10:40:43;31.30;43.70
7032;DHT22;3557;48.880;8.328;2022-08-07T10:43:18;31.40;42.40
7032;DHT22;3557;48.880;8.328;2022-08-07T10:45:48;31.40;42.00
7032;DHT22;3557;48.880;8.328;2022-08-07T10:48:33;31.50;41.80
7032;DHT22;3557;48.880;8.328;2022-08-07T10:51:08;31.40;41.70
7032;DHT22;3557;48.880;8.328;2022-08-07T10:53:42;31.60;42.00
7032;DHT22;3557;48.880;8.328;2022-08-07T10:56:22;32.00;42.20
7032;DHT22;3557;48.880;8.328;2022-08-07T10:58:57;32.20;41.80
7032;DHT22;3557;48.880;8.328;2022-08-07T11:01:46;32.50;41.60
7032;DHT22;3557;48.880;8.328;2022-08-07T11:04:26;32.60;41.50
7032;DHT22;3557;48.880;8.328;2022-08-07T11:07:05;32.90;40.40
7032;DHT22;3557;48.880;8.328;2022-08-07T11:09:42;32.80;38.30
7032;DHT22;3557;48.880;8.328;2022-08-07T11:12:16;32.80;37.90
7032;DHT22;3557;48.880;8.328;2022-08-07T11:14:48;32.60;38.10
7032;DHT22;3557;48.880;8.328;2022-08-07T11:17:20;32.50;39.00
7032;DHT22;3557;48.880;8.328;2022-08-07T11:19:57;32.30;40.00
7032;DHT22;3557;48.880;8.328;2022-08-07T11:22:32;32.30;39.90
7032;DHT22;3557;48.880;8.328;2022-08-07T11:25:07;32.60;40.50
7032;DHT22;3557;48.880;8.328;2022-08-07T11:27:44;32.60;39.10
7032;DHT22;3557;48.880;8.328;2022-08-07T11:30:18;32.60;39.90
7032;DHT22;3557;48.880;8.328;2022-08-07T11:32:53;32.60;40.40
7032;DHT22;3557;48.880;8.328;2022-08-07T11:35:28;32.60;40.20
7032;DHT22;3557;48.880;8.328;2022-08-07T11:38:08;32.50;40.40
7032;DHT22;3557;48.880;8.328;2022-08-07T11:40:45;31.90;40.60
7032;DHT22;3557;48.880;8.328;2022-08-07T11:43:18;31.70;41.50
7032;DHT22;3557;48.880;8.328;2022-08-07T11:46:07;31.90;41.60
7032;DHT22;3557;48.880;8.328;2022-08-07T11:48:58;31.50;42.20
7032;DHT22;3557;48.880;8.328;2022-08-07T11:51:46;32.00;41.10
7032;DHT22;3557;48.880;8.328;2022-08-07T11:54:35;32.30;41.30
7032;DHT22;3557;48.880;8.328;2022-08-07T11:57:15;32.50;39.80
7032;DHT22;3557;48.880;8.328;2022-08-07T12:00:00;32.70;40.40
7032;DHT22;3557;48.880;8.328;2022-08-07T12:05:47;32.10;40.80
7032;DHT22;3557;48.880;8.328;2022-08-07T12:08:29;32.10;40.40
7032;DHT22;3557;48.880;8.328;2022-08-07T12:11:02;31.90;39.60
7032;DHT22;3557;48.880;8.328;2022-08-07T12:13:39;32.10;39.50
7032;DHT22;3557;48.880;8.328;2022-08-07T12:16:12;32.30;40.00
7032;DHT22;3557;48.880;8.328;2022-08-07T12:18:47;32.40;39.40
7032;DHT22;3557;48.880;8.328;2022-08-07T12:21:25;32.30;39.70
7032;DHT22;3557;48.880;8.328;2022-08-07T12:24:02;31.90;39.80
7032;DHT22;3557;48.880;8.328;2022-08-07T12:26:39;31.40;40.50
7032;DHT22;3557;48.880;8.328;2022-08-07T12:29:11;31.60;40.50
7032;DHT22;3557;48.880;8.328;2022-08-07T12:31:54;31.90;39.90
7032;DHT22;3557;48.880;8.328;2022-08-07T12:34:26;31.40;39.30
7032;DHT22;3557;48.880;8.328;2022-08-07T12:36:56;31.20;40.10
7032;DHT22;3557;48.880;8.328;2022-08-07T12:39:25;31.20;40.50
7032;DHT22;3557;48.880;8.328;2022-08-07T12:41:57;31.30;39.60
7032;DHT22;3557;48.880;8.328;2022-08-07T12:44:25;31.70;38.70
7032;DHT22;3557;48.880;8.328;2022-08-07T12:46:59;31.80;38.90
7032;DHT22;3557;48.880;8.328;2022-08-07T12:49:40;31.40;38.60
7032;DHT22;3557;48.880;8.328;2022-08-07T12:52:15;31.40;39.90
7032;DHT22;3557;48.880;8.328;2022-08-07T12:54:58;31.40;39.20
7032;DHT22;3557;48.880;8.328;2022-08-07T12:57:30;31.80;37.90
7032;DHT22;3557;48.880;8.328;2022-08-07T12:59:59;31.40;38.80
7032;DHT22;3557;48.880;8.328;2022-08-07T13:02:45;31.40;38.90
7032;DHT22;3557;48.880;8.328;2022-08-07T13:05:33;31.70;38.60
7032;DHT22;3557;48.880;8.328;2022-08-07T13:08:28;31.60;38.10
7032;DHT22;3557;48.880;8.328;2022-08-07T13:11:20;31.90;38.30
7032;DHT22;3557;48.880;8.328;2022-08-07T13:14:02;31.80;38.20
7032;DHT22;3557;48.880;8.328;2022-08-07T13:16:39;32.40;36.90
7032;DHT22;3557;48.880;8.328;2022-08-07T13:19:26;33.00;36.50
7032;DHT22;3557;48.880;8.328;2022-08-07T13:22:01;32.90;36.00
7032;DHT22;3557;48.880;8.328;2022-08-07T13:24:41;32.00;36.70
7032;DHT22;3557;48.880;8.328;2022-08-07T13:27:17;31.80;37.10
7032;DHT22;3557;48.880;8.328;2022-08-07T13:29:51;31.50;37.60
7032;DHT22;3557;48.880;8.328;2022-08-07T13:32:25;31.80;36.30
7032;DHT22;3557;48.880;8.328;2022-08-07T13:34:59;32.30;36.30
7032;DHT22;3557;48.880;8.328;2022-08-07T13:37:32;32.80;36.60
7032;DHT22;3557;48.880;8.328;2022-08-07T13:40:13;33.20;35.50
7032;DHT22;3557;48.880;8.328;2022-08-07T13:42:47;33.20;35.10
7032;DHT22;3557;48.880;8.328;2022-08-07T13:45:18;33.10;35.00
7032;DHT22;3557;48.880;8.328;2022-08-07T13:47:47;33.00;36.00
7032;DHT22;3557;48.880;8.328;2022-08-07T13:50:19;33.10;35.60
7032;DHT22;3557;48.880;8.328;2022-08-07T13:52:52;33.30;34.90
7032;DHT22;3557;48.880;8.328;2022-08-07T13:55:21;33.50;35.00
7032;DHT22;3557;48.880;8.328;2022-08-07T13:57:57;33.80;34.40
7032;DHT22;3557;48.880;8.328;2022-08-07T14:00:48;33.80;34.30
7032;DHT22;3557;48.880;8.328;2022-08-07T14:03:17;34.20;33.80
7032;DHT22;3557;48.880;8.328;2022-08-07T14:05:46;34.30;32.40
7032;DHT22;3557;48.880;8.328;2022-08-07T14:08:18;34.40;33.30
7032;DHT22;3557;48.880;8.328;2022-08-07T14:10:47;34.40;33.20
7032;DHT22;3557;48.880;8.328;2022-08-07T14:13:21;34.30;33.30
7032;DHT22;3557;48.880;8.328;2022-08-07T14:15:57;34.20;33.20
7032;DHT22;3557;48.880;8.328;2022-08-07T14:18:31;34.30;33.10
7032;DHT22;3557;48.880;8.328;2022-08-07T14:21:13;34.70;32.00
7032;DHT22;3557;48.880;8.328;2022-08-07T14:23:47;34.60;31.90
7032;DHT22;3557;48.880;8.328;2022-08-07T14:26:20;34.50;32.30
7032;DHT22;3557;48.880;8.328;2022-08-07T14:29:04;34.60;33.20
7032;DHT22;3557;48.880;8.328;2022-08-07T14:31:33;34.90;32.00
7032;DHT22;3557;48.880;8.328;2022-08-07T14:34:01;34.70;32.90
7032;DHT22;3557;48.880;8.328;2022-08-07T14:36:31;34.80;32.30
7032;DHT22;3557;48.880;8.328;2022-08-07T14:39:00;35.00;31.90
7032;DHT22;3557;48.880;8.328;2022-08-07T14:41:30;35.00;32.20
7032;DHT22;3557;48.880;8.328;2022-08-07T14:44:01;35.40;31.80
7032;DHT22;3557;48.880;8.328;2022-08-07T14:46:30;34.70;31.90
7032;DHT22;3557;48.880;8.328;2022-08-07T14:48:59;33.90;32.70
7032;DHT22;3557;48.880;8.328;2022-08-07T14:51:27;34.20;33.10
7032;DHT22;3557;48.880;8.328;2022-08-07T14:53:57;34.00;33.00
7032;DHT22;3557;48.880;8.328;2022-08-07T14:56:28;33.90;32.70
7032;DHT22;3557;48.880;8.328;2022-08-07T14:59:08;34.00;33.10
7032;DHT22;3557;48.880;8.328;2022-08-07T15:01:38;34.30;32.30
7032;DHT22;3557;48.880;8.328;2022-08-07T15:04:08;33.90;32.70
7032;DHT22;3557;48.880;8.328;2022-08-07T15:06:39;34.20;33.10
7032;DHT22;3557;48.880;8.328;2022-08-07T15:09:08;34.20;32.60
7032;DHT22;3557;48.880;8.328;2022-08-07T15:11:39;34.10;32.70
7032;DHT22;3557;48.880;8.328;2022-08-07T15:14:15;34.50;32.30
7032;DHT22;3557;48.880;8.328;2022-08-07T15:16:45;34.60;31.50
7032;DHT22;3557;48.880;8.328;2022-08-07T15:19:16;34.90;31.50
7032;DHT22;3557;48.880;8.328;2022-08-07T15:21:47;34.80;31.70
7032;DHT22;3557;48.880;8.328;2022-08-07T15:24:18;35.00;32.20
7032;DHT22;3557;48.880;8.328;2022-08-07T15:26:55;35.10;31.90
7032;DHT22;3557;48.880;8.328;2022-08-07T15:29:31;34.80;31.30
7032;DHT22;3557;48.880;8.328;2022-08-07T15:32:02;34.90;31.20
7032;DHT22;3557;48.880;8.328;2022-08-07T15:34:34;35.00;31.10
7032;DHT22;3557;48.880;8.328;2022-08-07T15:37:04;35.30;31.10
7032;DHT22;3557;48.880;8.328;2022-08-07T15:39:36;35.60;30.70
7032;DHT22;3557;48.880;8.328;2022-08-07T15:42:05;35.60;30.40
7032;DHT22;3557;48.880;8.328;2022-08-07T15:44:44;35.30;30.70
7032;DHT22;3557;48.880;8.328;2022-08-07T15:47:13;34.80;30.90
7032;DHT22;3557;48.880;8.328;2022-08-07T15:49:44;33.80;31.80
7032;DHT22;3557;48.880;8.328;2022-08-07T15:52:12;33.10;32.60
7032;DHT22;3557;48.880;8.328;2022-08-07T15:54:41;32.90;33.30
7032;DHT22;3557;48.880;8.328;2022-08-07T15:57:13;33.40;32.90
7032;DHT22;3557;48.880;8.328;2022-08-07T15:59:46;33.60;32.90
7032;DHT22;3557;48.880;8.328;2022-08-07T16:02:26;34.00;32.00
7032;DHT22;3557;48.880;8.328;2022-08-07T16:04:57;34.40;31.20
7032;DHT22;3557;48.880;8.328;2022-08-07T16:07:30;34.70;31.60
7032;DHT22;3557;48.880;8.328;2022-08-07T16:10:06;34.60;31.40
7032;DHT22;3557;48.880;8.328;2022-08-07T16:12:50;34.40;31.40
7032;DHT22;3557;48.880;8.328;2022-08-07T16:15:34;34.40;31.50
7032;DHT22;3557;48.880;8.328;2022-08-07T16:18:16;34.50;31.70
7032;DHT22;3557;48.880;8.328;2022-08-07T16:20:50;34.00;30.90
7032;DHT22;3557;48.880;8.328;2022-08-07T16:23:29;34.00;31.40
7032;DHT22;3557;48.880;8.328;2022-08-07T16:26:04;33.60;31.80
7032;DHT22;3557;48.880;8.328;2022-08-07T16:28:47;33.70;32.00
7032;DHT22;3557;48.880;8.328;2022-08-07T16:31:31;33.80;31.80
7032;DHT22;3557;48.880;8.328;2022-08-07T16:34:06;34.00;32.00
7032;DHT22;3557;48.880;8.328;2022-08-07T16:36:44;34.40;31.80
7032;DHT22;3557;48.880;8.328;2022-08-07T16:39:31;35.00;30.90
7032;DHT22;3557;48.880;8.328;2022-08-07T16:42:30;34.50;31.50
7032;DHT22;3557;48.880;8.328;2022-08-07T16:45:16;34.00;31.50
7032;DHT22;3557;48.880;8.328;2022-08-07T16:51:29;32.50;31.90
7032;DHT22;3557;48.880;8.328;2022-08-07T16:54:12;33.60;31.40
7032;DHT22;3557;48.880;8.328;2022-08-07T16:56:59;33.70;31.40
7032;DHT22;3557;48.880;8.328;2022-08-07T16:59:38;33.80;31.50
7032;DHT22;3557;48.880;8.328;2022-08-07T17:02:33;33.50;31.90
7032;DHT22;3557;48.880;8.328;2022-08-07T17:05:10;33.90;31.00
7032;DHT22;3557;48.880;8.328;2022-08-07T17:07:46;34.00;31.10
7032;DHT22;3557;48.880;8.328;2022-08-07T17:10:23;34.00;30.90
7032;DHT22;3557;48.880;8.328;2022-08-07T17:13:02;34.10;30.60
7032;DHT22;3557;48.880;8.328;2022-08-07T17:15:54;32.90;32.30
7032;DHT22;3557;48.880;8.328;2022-08-07T17:18:30;32.40;33.00
7032;DHT22;3557;48.880;8.328;2022-08-07T17:21:13;32.20;33.00
7032;DHT22;3557;48.880;8.328;2022-08-07T17:23:46;32.20;33.10
7032;DHT22;3557;48.880;8.328;2022-08-07T17:26:24;32.10;32.70
7032;DHT22;3557;48.880;8.328;2022-08-07T17:29:03;32.30;33.40
7032;DHT22;3557;48.880;8.328;2022-08-07T17:31:41;32.40;33.30
7032;DHT22;3557;48.880;8.328;2022-08-07T17:34:21;32.50;32.70
7032;DHT22;3557;48.880;8.328;2022-08-07T17:37:02;32.20;33.30
7032;DHT22;3557;48.880;8.328;2022-08-07T17:39:41;32.30;33.60
7032;DHT22;3557;48.880;8.328;2022-08-07T17:42:25;32.10;33.60
7032;DHT22;3557;48.880;8.328;2022-08-07T17:44:56;32.10;34.00
7032;DHT22;3557;48.880;8.328;2022-08-07T17:47:29;32.10;33.60
7032;DHT22;3557;48.880;8.328;2022-08-07T17:50:09;31.90;34.40
7032;DHT22;3557;48.880;8.328;2022-08-07T17:52:45;31.80;34.10
7032;DHT22;3557;48.880;8.328;2022-08-07T17:55:17;31.70;34.40
7032;DHT22;3557;48.880;8.328;2022-08-07T17:57:57;31.90;34.30
7032;DHT22;3557;48.880;8.328;2022-08-07T18:00:28;31.80;34.30
7032;DHT22;3557;48.880;8.328;2022-08-07T18:02:59;31.70;34.60
7032;DHT22;3557;48.880;8.328;2022-08-07T18:05:30;31.50;34.90
7032;DHT22;3557;48.880;8.328;2022-08-07T18:08:07;31.40;34.90
7032;DHT22;3557;48.880;8.328;2022-08-07T18:10:42;31.40;35.10
7032;DHT22;3557;48.880;8.328;2022-08-07T18:13:19;31.00;35.50
7032;DHT22;3557;48.880;8.328;2022-08-07T18:16:02;30.80;35.60
7032;DHT22;3557;48.880;8.328;2022-08-07T18:18:35;30.70;35.70
7032;DHT22;3557;48.880;8.328;2022-08-07T18:21:13;30.50;36.10
7032;DHT22;3557;48.880;8.328;2022-08-07T18:27:12;29.40;37.50
7032;DHT22;3557;48.880;8.328;2022-08-07T18:30:01;28.50;38.00
7032;DHT22;3557;48.880;8.328;2022-08-07T18:32:42;27.80;39.00
7032;DHT22;3557;48.880;8.328;2022-08-07T18:35:37;27.10;39.80
7032;DHT22;3557;48.880;8.328;2022-08-07T18:38:17;26.70;40.20
7032;DHT22;3557;48.880;8.328;2022-08-07T18:40:58;26.30;41.20
7032;DHT22;3557;48.880;8.328;2022-08-07T18:43:44;26.00;41.60
7032;DHT22;3557;48.880;8.328;2022-08-07T18:46:21;25.80;42.30
7032;DHT22;3557;48.880;8.328;2022-08-07T18:49:00;25.60;42.40
7032;DHT22;3557;48.880;8.328;2022-08-07T18:51:33;25.40;43.60
7032;DHT22;3557;48.880;8.328;2022-08-07T18:54:17;25.20;43.60
7032;DHT22;3557;48.880;8.328;2022-08-07T18:56:50;25.00;44.10
7032;DHT22;3557;48.880;8.328;2022-08-07T18:59:35;24.90;44.90
7032;DHT22;3557;48.880;8.328;2022-08-07T19:02:11;24.60;45.90
7032;DHT22;3557;48.880;8.328;2022-08-07T19:04:48;24.50;45.80
7032;DHT22;3557;48.880;8.328;2022-08-07T19:07:30;24.30;46.50
7032;DHT22;3557;48.880;8.328;2022-08-07T19:10:03;24.20;47.70
7032;DHT22;3557;48.880;8.328;2022-08-07T19:15:20;23.70;50.50
7032;DHT22;3557;48.880;8.328;2022-08-07T19:18:01;23.60;51.50
7032;DHT22;3557;48.880;8.328;2022-08-07T19:20:41;23.40;51.50
7032;DHT22;3557;48.880;8.328;2022-08-07T19:23:18;23.10;51.70
7032;DHT22;3557;48.880;8.328;2022-08-07T19:25:50;22.80;51.80
7032;DHT22;3557;48.880;8.328;2022-08-07T19:28:22;22.70;52.90
7032;DHT22;3557;48.880;8.328;2022-08-07T19:30:54;22.50;53.40
7032;DHT22;3557;48.880;8.328;2022-08-07T19:33:26;22.40;53.90
7032;DHT22;3557;48.880;8.328;2022-08-07T19:35:55;22.20;55.20
7032;DHT22;3557;48.880;8.328;2022-08-07T19:38:26;22.00;55.90
7032;DHT22;3557;48.880;8.328;2022-08-07T19:40:58;21.90;57.20
7032;DHT22;3557;48.880;8.328;2022-08-07T19:43:29;21.80;57.10
7032;DHT22;3557;48.880;8.328;2022-08-07T19:46:00;21.60;57.30
7032;DHT22;3557;48.880;8.328;2022-08-07T19:48:34;21.40;57.50
7032;DHT22;3557;48.880;8.328;2022-08-07T19:51:04;21.30;58.00
7032;DHT22;3557;48.880;8.328;2022-08-07T19:53:32;21.10;58.70
7032;DHT22;3557;48.880;8.328;2022-08-07T19:56:03;21.00;59.80
7032;DHT22;3557;48.880;8.328;2022-08-07T19:58:34;20.80;60.50
7032;DHT22;3557;48.880;8.328;2022-08-07T20:03:30;20.60;61.90
7032;DHT22;3557;48.880;8.328;2022-08-07T20:06:00;20.50;62.00
7032;DHT22;3557;48.880;8.328;2022-08-07T20:08:31;20.50;62.70
7032;DHT22;3557;48.880;8.328;2022-08-07T20:11:01;20.40;63.30
7032;DHT22;3557;48.880;8.328;2022-08-07T20:13:39;20.40;62.30
7032;DHT22;3557;48.880;8.328;2022-08-07T20:16:11;20.30;63.20
7032;DHT22;3557;48.880;8.328;2022-08-07T20:18:46;20.20;63.90
7032;DHT22;3557;48.880;8.328;2022-08-07T20:21:14;20.10;63.60
7032;DHT22;3557;48.880;8.328;2022-08-07T20:23:45;20.00;63.70
7032;DHT22;3557;48.880;8.328;2022-08-07T20:28:43;19.90;66.40
7032;DHT22;3557;48.880;8.328;2022-08-07T20:31:14;19.80;66.80
7032;DHT22;3557;48.880;8.328;2022-08-07T20:33:45;19.60;66.80
7032;DHT22;3557;48.880;8.328;2022-08-07T20:36:17;19.60;67.00
7032;DHT22;3557;48.880;8.328;2022-08-07T20:38:45;19.50;67.40